AIC190 VOBL-VABB
Flight info
| Callsign | AIC190 |
|---|---|
| Flight time | N/A |
| Altitude | 40000 |
| Route | VAGPU8A VAGPU Q8 AGELA MOLGO2A |
| Aircraft | A359/H-SDE2E3GHIJ3J4J5LM1ORWXY/LB1D1 |
Departure
| Time | 2026-04-27 13:53 |
|---|---|
| Airport | Kempegowda International Airport Bengaluru (VOBL) |
Arrival
| Time | N/A |
|---|---|
| Airport | Chhatrapati Shivaji Maharaj International Airport (VABB) |
| Time | Latitude | Longitude | Altitude | Speed | Heading |
|---|---|---|---|---|---|
| 2026-04-27 13:20 | 13.20091 | 77.71736 | 3018 ft | 0 kts | 181° |
| 2026-04-27 13:40 | 13.20100 | 77.71736 | 3025 ft | 4 kts | 179° |
| 2026-04-27 13:41 | 13.20127 | 77.71734 | 3022 ft | 4 kts | 171° |
| 2026-04-27 13:41 | 13.20153 | 77.71728 | 3022 ft | 4 kts | 158° |
| 2026-04-27 13:41 | 13.20175 | 77.71714 | 3023 ft | 4 kts | 127° |
| 2026-04-27 13:41 | 13.20182 | 77.71699 | 3025 ft | 0 kts | 90° |
| 2026-04-27 13:44 | 13.20182 | 77.71704 | 3025 ft | 4 kts | 91° |
| 2026-04-27 13:44 | 13.20182 | 77.71750 | 3020 ft | 7 kts | 88° |
| 2026-04-27 13:45 | 13.20211 | 77.71782 | 3020 ft | 7 kts | 17° |
| 2026-04-27 13:45 | 13.20266 | 77.71786 | 3024 ft | 9 kts | 1° |
| 2026-04-27 13:45 | 13.20331 | 77.71787 | 3021 ft | 11 kts | 1° |
| 2026-04-27 13:45 | 13.20414 | 77.71788 | 3020 ft | 13 kts | 1° |
| 2026-04-27 13:46 | 13.20477 | 77.71789 | 3023 ft | 0 kts | 1° |
| 2026-04-27 13:46 | 13.20485 | 77.71789 | 3022 ft | 3 kts | 355° |
| 2026-04-27 13:46 | 13.20520 | 77.71751 | 3023 ft | 11 kts | 285° |
| 2026-04-27 13:46 | 13.20522 | 77.71664 | 3024 ft | 13 kts | 270° |
| 2026-04-27 13:47 | 13.20522 | 77.71560 | 3018 ft | 16 kts | 270° |
| 2026-04-27 13:47 | 13.20524 | 77.71438 | 3017 ft | 19 kts | 275° |
| 2026-04-27 13:47 | 13.20523 | 77.71304 | 3017 ft | 19 kts | 270° |
| 2026-04-27 13:47 | 13.20525 | 77.71158 | 3017 ft | 21 kts | 271° |
| 2026-04-27 13:48 | 13.20528 | 77.70998 | 3017 ft | 24 kts | 271° |
| 2026-04-27 13:48 | 13.20530 | 77.70823 | 3020 ft | 25 kts | 270° |
| 2026-04-27 13:48 | 13.20531 | 77.70637 | 3017 ft | 27 kts | 270° |
| 2026-04-27 13:48 | 13.20532 | 77.70440 | 3017 ft | 28 kts | 270° |
| 2026-04-27 13:49 | 13.20533 | 77.70235 | 3018 ft | 29 kts | 270° |
| 2026-04-27 13:49 | 13.20535 | 77.70023 | 3018 ft | 30 kts | 271° |
| 2026-04-27 13:49 | 13.20537 | 77.69801 | 3018 ft | 32 kts | 270° |
| 2026-04-27 13:49 | 13.20540 | 77.69571 | 3017 ft | 33 kts | 270° |
| 2026-04-27 13:50 | 13.20541 | 77.69332 | 3017 ft | 34 kts | 270° |
| 2026-04-27 13:50 | 13.20543 | 77.69088 | 3017 ft | 35 kts | 271° |
| 2026-04-27 13:50 | 13.20546 | 77.68838 | 3025 ft | 35 kts | 270° |
| 2026-04-27 13:50 | 13.20547 | 77.68676 | 3018 ft | 8 kts | 270° |
| 2026-04-27 13:51 | 13.20563 | 77.68624 | 3028 ft | 7 kts | 323° |
| 2026-04-27 13:51 | 13.20615 | 77.68617 | 3020 ft | 8 kts | 360° |
| 2026-04-27 13:51 | 13.20681 | 77.68618 | 3020 ft | 11 kts | 7° |
| 2026-04-27 13:51 | 13.20718 | 77.68671 | 3023 ft | 10 kts | 85° |
| 2026-04-27 13:52 | 13.20718 | 77.68696 | 3025 ft | 0 kts | 88° |
| 2026-04-27 13:52 | 13.20718 | 77.68711 | 3025 ft | 15 kts | 89° |
| 2026-04-27 13:52 | 13.20717 | 77.69015 | 3026 ft | 77 kts | 90° |
| 2026-04-27 13:52 | 13.20711 | 77.69800 | 3020 ft | 143 kts | 91° |
| 2026-04-27 13:53 | 13.20876 | 77.72166 | 4184 ft | 166 kts | 67° |
| 2026-04-27 13:53 | 13.21439 | 77.73163 | 5119 ft | 160 kts | 62° |
| 2026-04-27 13:53 | 13.22028 | 77.74146 | 5819 ft | 163 kts | 62° |
| 2026-04-27 13:54 | 13.22603 | 77.75164 | 6486 ft | 167 kts | 63° |
| 2026-04-27 13:54 | 13.23173 | 77.76225 | 7089 ft | 171 kts | 63° |
| 2026-04-27 13:54 | 13.23737 | 77.77304 | 7739 ft | 173 kts | 63° |
| 2026-04-27 13:54 | 13.24303 | 77.78403 | 8379 ft | 176 kts | 63° |
| 2026-04-27 13:55 | 13.24873 | 77.79522 | 9007 ft | 177 kts | 62° |
| 2026-04-27 13:55 | 13.25447 | 77.80653 | 9628 ft | 179 kts | 62° |
| 2026-04-27 13:55 | 13.26026 | 77.81796 | 10182 ft | 181 kts | 62° |
| 2026-04-27 13:55 | 13.26725 | 77.82873 | 10701 ft | 183 kts | 45° |
| 2026-04-27 13:56 | 13.27842 | 77.83475 | 11204 ft | 185 kts | 11° |
| 2026-04-27 13:56 | 13.29127 | 77.83565 | 11740 ft | 187 kts | 1° |
| 2026-04-27 13:56 | 13.30440 | 77.83555 | 12249 ft | 189 kts | 0° |
| 2026-04-27 13:56 | 13.31753 | 77.83517 | 12768 ft | 190 kts | 356° |
| 2026-04-27 13:57 | 13.33020 | 77.83124 | 13256 ft | 192 kts | 335° |
| 2026-04-27 13:57 | 13.34200 | 77.82466 | 13761 ft | 194 kts | 332° |
| 2026-04-27 13:57 | 13.35369 | 77.81766 | 14144 ft | 196 kts | 331° |
| 2026-04-27 13:57 | 13.36556 | 77.81059 | 14559 ft | 198 kts | 332° |
| 2026-04-27 13:58 | 13.37755 | 77.80350 | 14965 ft | 200 kts | 332° |
| 2026-04-27 13:58 | 13.38971 | 77.79636 | 15349 ft | 202 kts | 332° |
| 2026-04-27 13:58 | 13.40202 | 77.78915 | 15738 ft | 204 kts | 332° |
| 2026-04-27 13:58 | 13.41442 | 77.78190 | 16114 ft | 206 kts | 332° |
| 2026-04-27 13:59 | 13.42692 | 77.77461 | 16500 ft | 208 kts | 332° |
| 2026-04-27 13:59 | 13.43943 | 77.76736 | 16854 ft | 210 kts | 332° |
| 2026-04-27 13:59 | 13.45217 | 77.75991 | 17219 ft | 212 kts | 332° |
| 2026-04-27 13:59 | 13.46505 | 77.75238 | 17574 ft | 214 kts | 332° |
| 2026-04-27 14:00 | 13.47809 | 77.74476 | 17926 ft | 216 kts | 332° |
| 2026-04-27 14:00 | 13.49123 | 77.73709 | 18255 ft | 218 kts | 332° |
| 2026-04-27 14:00 | 13.50448 | 77.72936 | 18548 ft | 220 kts | 332° |
| 2026-04-27 14:00 | 13.51776 | 77.72162 | 18868 ft | 220 kts | 332° |
| 2026-04-27 14:01 | 13.53111 | 77.71382 | 19165 ft | 221 kts | 332° |
| 2026-04-27 14:01 | 13.54454 | 77.70604 | 19441 ft | 223 kts | 332° |
| 2026-04-27 14:01 | 13.55805 | 77.69817 | 19739 ft | 223 kts | 331° |
| 2026-04-27 14:01 | 13.57174 | 77.69015 | 19939 ft | 229 kts | 331° |
| 2026-04-27 14:02 | 13.58557 | 77.68204 | 20277 ft | 227 kts | 331° |
| 2026-04-27 14:02 | 13.59926 | 77.67402 | 20609 ft | 226 kts | 331° |
| 2026-04-27 14:02 | 13.60833 | 77.66871 | 20793 ft | 227 kts | 331° |
| 2026-04-27 14:02 | 13.62207 | 77.66068 | 21049 ft | 228 kts | 331° |
| 2026-04-27 14:03 | 13.63589 | 77.65260 | 21331 ft | 229 kts | 331° |
| 2026-04-27 14:03 | 13.64979 | 77.64447 | 21591 ft | 230 kts | 331° |
| 2026-04-27 14:03 | 13.66848 | 77.63355 | 21905 ft | 232 kts | 331° |
| 2026-04-27 14:03 | 13.68267 | 77.62525 | 22070 ft | 240 kts | 331° |
| 2026-04-27 14:04 | 13.69248 | 77.61952 | 22193 ft | 251 kts | 331° |
| 2026-04-27 14:04 | 13.70824 | 77.61032 | 22395 ft | 269 kts | 331° |
| 2026-04-27 14:04 | 13.72499 | 77.60052 | 22593 ft | 285 kts | 331° |
| 2026-04-27 14:04 | 13.74261 | 77.59021 | 22786 ft | 299 kts | 331° |
| 2026-04-27 14:05 | 13.76114 | 77.57938 | 22938 ft | 315 kts | 331° |
| 2026-04-27 14:05 | 13.78079 | 77.56790 | 23116 ft | 334 kts | 331° |
| 2026-04-27 14:05 | 13.80122 | 77.55594 | 23364 ft | 350 kts | 331° |
| 2026-04-27 14:05 | 13.82294 | 77.54322 | 23581 ft | 367 kts | 331° |
| 2026-04-27 14:06 | 13.84564 | 77.52993 | 23800 ft | 383 kts | 331° |
| 2026-04-27 14:06 | 13.86922 | 77.51611 | 24021 ft | 397 kts | 331° |
| 2026-04-27 14:06 | 13.89365 | 77.50180 | 24239 ft | 411 kts | 330° |
| 2026-04-27 14:06 | 13.91869 | 77.48713 | 24665 ft | 417 kts | 330° |
| 2026-04-27 14:07 | 13.94397 | 77.47231 | 25280 ft | 418 kts | 329° |
| 2026-04-27 14:07 | 13.96931 | 77.45745 | 25857 ft | 421 kts | 329° |
| 2026-04-27 14:07 | 13.99495 | 77.44240 | 26361 ft | 426 kts | 329° |
| 2026-04-27 14:07 | 14.02079 | 77.42725 | 26936 ft | 429 kts | 329° |
| 2026-04-27 14:08 | 14.04677 | 77.41200 | 27529 ft | 431 kts | 329° |
| 2026-04-27 14:08 | 14.07292 | 77.39666 | 28114 ft | 434 kts | 329° |
| 2026-04-27 14:08 | 14.09918 | 77.38124 | 28691 ft | 437 kts | 328° |
| 2026-04-27 14:08 | 14.12568 | 77.36568 | 29269 ft | 439 kts | 328° |
| 2026-04-27 14:09 | 14.15232 | 77.35003 | 29823 ft | 442 kts | 328° |
| 2026-04-27 14:09 | 14.17908 | 77.33431 | 30272 ft | 445 kts | 328° |
| 2026-04-27 14:09 | 14.20617 | 77.31838 | 30670 ft | 450 kts | 328° |
| 2026-04-27 14:09 | 14.23347 | 77.30233 | 31062 ft | 454 kts | 327° |
| 2026-04-27 14:10 | 14.26107 | 77.28610 | 31443 ft | 458 kts | 327° |
| 2026-04-27 14:10 | 14.28879 | 77.26978 | 31857 ft | 461 kts | 327° |
| 2026-04-27 14:10 | 14.31675 | 77.25333 | 32246 ft | 465 kts | 327° |
| 2026-04-27 14:10 | 14.34494 | 77.23675 | 32632 ft | 468 kts | 327° |
| 2026-04-27 14:11 | 14.37341 | 77.21998 | 33040 ft | 472 kts | 327° |
| 2026-04-27 14:11 | 14.40169 | 77.20333 | 33402 ft | 475 kts | 327° |
| 2026-04-27 14:11 | 14.43049 | 77.18637 | 33750 ft | 479 kts | 327° |
| 2026-04-27 14:11 | 14.45954 | 77.16925 | 34067 ft | 482 kts | 326° |
| 2026-04-27 14:12 | 14.48868 | 77.15208 | 34395 ft | 484 kts | 326° |
| 2026-04-27 14:12 | 14.51718 | 77.13529 | 34835 ft | 482 kts | 326° |
| 2026-04-27 14:12 | 14.54744 | 77.11746 | 35343 ft | 480 kts | 326° |
| 2026-04-27 14:12 | 14.57648 | 77.10047 | 35759 ft | 480 kts | 327° |